createdAt,value
2017-08-29T00:01:12.534Z,19.83
2017-08-29T00:03:39.986Z,20.83
2017-08-29T00:06:07.442Z,22.57
2017-08-29T00:08:34.910Z,24.97
2017-08-29T00:11:02.407Z,21.40
2017-08-29T00:13:29.877Z,19.33
2017-08-29T00:15:57.340Z,25.07
2017-08-29T00:18:24.824Z,23.27
2017-08-29T00:20:52.270Z,24.63
2017-08-29T00:23:19.754Z,24.33
2017-08-29T00:25:47.222Z,22.47
2017-08-29T00:28:14.709Z,26.83
2017-08-29T00:30:42.175Z,27.23
2017-08-29T00:33:09.664Z,22.63
2017-08-29T00:35:37.124Z,21.53
2017-08-29T00:38:04.607Z,19.33
2017-08-29T00:40:32.067Z,21.67
2017-08-29T00:42:59.547Z,25.43
2017-08-29T00:45:27.008Z,19.77
2017-08-29T00:47:54.595Z,21.23
2017-08-29T00:50:22.041Z,20.70
2017-08-29T00:52:49.524Z,21.43
2017-08-29T00:55:16.973Z,22.37
2017-08-29T00:57:44.442Z,21.53
2017-08-29T01:00:11.904Z,20.00
2017-08-29T01:02:39.387Z,20.50
2017-08-29T01:05:06.852Z,21.70
2017-08-29T01:07:34.346Z,24.00
2017-08-29T01:10:01.797Z,19.60
2017-08-29T01:12:29.295Z,28.60
2017-08-29T01:14:56.742Z,20.37
2017-08-29T01:17:24.227Z,20.17
2017-08-29T01:19:51.680Z,18.80
2017-08-29T01:22:19.130Z,19.27
2017-08-29T01:24:46.615Z,20.53
2017-08-29T01:27:14.075Z,19.30
2017-08-29T01:29:41.545Z,22.30
2017-08-29T01:32:09.008Z,18.23
2017-08-29T01:34:36.481Z,21.80
2017-08-29T01:37:03.943Z,19.13
2017-08-29T01:39:31.427Z,20.23
2017-08-29T01:41:58.892Z,17.07
2017-08-29T01:44:26.359Z,19.83
2017-08-29T01:46:53.807Z,19.83
2017-08-29T01:49:21.299Z,19.37
2017-08-29T01:51:48.756Z,19.70
2017-08-29T01:54:16.244Z,21.67
2017-08-29T01:56:43.689Z,19.57
2017-08-29T01:59:11.176Z,21.80
2017-08-29T02:01:38.627Z,28.20
2017-08-29T02:04:06.166Z,22.07
2017-08-29T02:06:33.614Z,20.80
2017-08-29T02:09:01.104Z,20.50
2017-08-29T02:11:28.564Z,19.83
2017-08-29T02:13:56.054Z,22.20
2017-08-29T02:16:23.498Z,31.17
2017-08-29T02:18:50.969Z,27.90
2017-08-29T02:21:18.430Z,25.77
2017-08-29T02:23:45.888Z,24.73
2017-08-29T02:26:13.383Z,23.40
2017-08-29T02:28:40.849Z,24.83
2017-08-29T02:31:08.355Z,23.80
2017-08-29T02:33:35.821Z,24.00
2017-08-29T02:36:03.311Z,31.00
2017-08-29T02:38:30.831Z,26.07
2017-08-29T02:40:58.310Z,24.43
2017-08-29T02:43:25.780Z,26.37
2017-08-29T02:45:53.265Z,37.30
2017-08-29T02:48:20.725Z,31.53
2017-08-29T02:50:48.291Z,24.67
2017-08-29T02:53:15.785Z,24.53
2017-08-29T02:55:43.268Z,27.30
2017-08-29T02:58:10.729Z,27.70
2017-08-29T03:00:38.220Z,29.20
2017-08-29T03:03:05.692Z,38.77
2017-08-29T03:05:33.268Z,29.10
2017-08-29T03:08:00.729Z,30.53
2017-08-29T03:10:28.226Z,28.93
2017-08-29T03:12:55.684Z,30.70
2017-08-29T03:15:23.154Z,34.80
2017-08-29T03:17:50.598Z,28.73
2017-08-29T03:20:18.084Z,29.93
2017-08-29T03:22:45.559Z,26.00
2017-08-29T03:25:13.028Z,26.27
2017-08-29T03:27:40.491Z,24.57
2017-08-29T03:30:07.991Z,41.97
2017-08-29T03:32:35.453Z,24.43
2017-08-29T03:35:02.936Z,27.93
2017-08-29T03:37:30.386Z,25.97
2017-08-29T03:39:57.859Z,28.37
2017-08-29T03:42:25.319Z,26.73
2017-08-29T03:44:52.766Z,27.37
2017-08-29T03:47:20.259Z,24.13
2017-08-29T03:49:47.720Z,27.73
2017-08-29T03:52:15.203Z,28.80
2017-08-29T03:54:42.662Z,24.10
2017-08-29T03:57:10.151Z,22.63
2017-08-29T03:59:37.616Z,28.43
2017-08-29T04:02:05.104Z,29.10
2017-08-29T04:04:32.551Z,24.37
2017-08-29T04:07:00.018Z,25.00
2017-08-29T04:09:27.477Z,27.60
2017-08-29T04:11:54.956Z,28.47
2017-08-29T04:14:22.428Z,24.27
2017-08-29T04:16:49.911Z,25.33
2017-08-29T04:19:17.424Z,27.67
2017-08-29T04:21:44.913Z,26.83
2017-08-29T04:24:12.376Z,31.80
2017-08-29T04:26:39.858Z,30.63
2017-08-29T04:29:07.309Z,35.33
2017-08-29T04:31:34.784Z,32.13
2017-08-29T04:34:02.248Z,28.27
2017-08-29T04:36:29.732Z,24.90
2017-08-29T04:38:57.199Z,23.83
2017-08-29T04:41:24.683Z,24.97
2017-08-29T04:43:52.139Z,27.87
2017-08-29T04:46:19.606Z,27.57
2017-08-29T04:48:47.060Z,27.17
2017-08-29T04:51:14.545Z,27.37
2017-08-29T04:53:42.075Z,36.20
2017-08-29T04:56:09.576Z,31.03
2017-08-29T04:58:37.040Z,28.63
2017-08-29T05:01:04.573Z,30.97
2017-08-29T05:03:32.018Z,39.77
2017-08-29T05:05:59.478Z,27.47
2017-08-29T05:08:26.970Z,28.37
2017-08-29T05:10:54.437Z,27.83
2017-08-29T05:13:21.918Z,36.00
2017-08-29T05:15:49.384Z,36.07
2017-08-29T05:18:16.862Z,33.83
2017-08-29T05:20:44.319Z,36.43
2017-08-29T05:23:11.804Z,30.63
2017-08-29T05:25:39.268Z,36.33
2017-08-29T05:28:06.754Z,25.60
2017-08-29T05:30:34.214Z,37.37
2017-08-29T05:33:01.700Z,30.43
2017-08-29T05:35:29.159Z,30.43
2017-08-29T05:37:57.180Z,27.93
2017-08-29T05:40:24.640Z,24.60
2017-08-29T05:42:52.121Z,26.37
2017-08-29T05:45:19.587Z,22.37
2017-08-29T05:47:47.078Z,22.47
2017-08-29T05:50:14.540Z,22.07
2017-08-29T05:52:42.018Z,22.00
2017-08-29T05:55:09.482Z,20.73
2017-08-29T05:57:36.973Z,24.90
2017-08-29T06:00:04.439Z,22.93
2017-08-29T06:02:31.913Z,22.80
2017-08-29T06:04:59.375Z,28.53
2017-08-29T06:07:26.846Z,33.43
2017-08-29T06:09:54.304Z,26.07
2017-08-29T06:12:21.772Z,24.60
2017-08-29T06:14:49.251Z,26.13
2017-08-29T06:17:16.712Z,28.00
2017-08-29T06:19:44.195Z,25.43
2017-08-29T06:22:11.652Z,23.13
2017-08-29T06:24:39.136Z,24.00
2017-08-29T06:27:06.591Z,26.63
2017-08-29T06:29:34.091Z,31.80
2017-08-29T06:32:01.547Z,30.23
2017-08-29T06:34:29.036Z,26.37
2017-08-29T06:36:56.497Z,23.20
2017-08-29T06:39:23.979Z,27.43
2017-08-29T06:41:51.439Z,24.30
2017-08-29T06:44:18.924Z,26.00
2017-08-29T06:46:46.383Z,24.20
2017-08-29T06:49:13.854Z,25.60
2017-08-29T06:51:41.735Z,24.57
2017-08-29T06:54:09.220Z,26.27
2017-08-29T06:56:36.682Z,25.77
2017-08-29T06:59:04.177Z,25.03
2017-08-29T07:01:31.640Z,26.40
2017-08-29T07:03:59.090Z,24.53
2017-08-29T07:06:26.574Z,26.23
2017-08-29T07:08:54.028Z,23.37
2017-08-29T07:11:21.512Z,24.67
2017-08-29T07:13:48.957Z,22.63
2017-08-29T07:16:16.440Z,25.27
2017-08-29T07:18:43.909Z,30.77
2017-08-29T07:21:11.391Z,19.50
2017-08-29T07:23:38.848Z,25.00
2017-08-29T07:26:06.328Z,20.70
2017-08-29T07:28:33.795Z,19.40
2017-08-29T07:31:01.279Z,22.13
2017-08-29T07:33:28.726Z,20.67
2017-08-29T07:35:56.212Z,19.87
2017-08-29T07:38:23.672Z,18.67
2017-08-29T07:40:51.143Z,20.23
2017-08-29T07:43:18.607Z,30.30
2017-08-29T07:45:46.100Z,18.43
2017-08-29T07:48:13.549Z,17.30
2017-08-29T07:50:41.044Z,18.30
2017-08-29T07:53:08.552Z,19.30
2017-08-29T07:55:36.012Z,20.70
2017-08-29T07:58:03.548Z,15.47
2017-08-29T08:00:31.011Z,17.27
2017-08-29T08:02:58.509Z,28.00
2017-08-29T08:05:25.965Z,14.30
2017-08-29T08:07:53.452Z,14.97
2017-08-29T08:10:20.911Z,16.00
2017-08-29T08:12:48.402Z,15.53
2017-08-29T08:15:15.853Z,24.93
2017-08-29T08:17:43.325Z,13.20
2017-08-29T08:20:10.836Z,12.77
2017-08-29T08:22:38.320Z,13.37
2017-08-29T08:25:05.781Z,13.60
2017-08-29T08:27:33.289Z,13.97
2017-08-29T08:30:00.757Z,12.23
2017-08-29T08:32:28.345Z,19.07
2017-08-29T08:34:55.801Z,12.23
2017-08-29T08:37:23.271Z,14.53
2017-08-29T08:39:50.727Z,10.93
2017-08-29T08:42:18.212Z,11.73
2017-08-29T08:44:45.664Z,10.40
2017-08-29T08:47:13.154Z,10.57
2017-08-29T08:49:40.622Z,11.07
2017-08-29T08:52:08.081Z,11.53
2017-08-29T08:54:35.560Z,11.53
2017-08-29T08:57:03.007Z,10.13
2017-08-29T08:59:30.478Z,12.97
2017-08-29T09:01:57.940Z,14.30
2017-08-29T09:04:25.438Z,11.93
2017-08-29T09:06:52.895Z,10.00
2017-08-29T09:09:20.381Z,11.87
2017-08-29T09:11:47.843Z,12.17
2017-08-29T09:14:15.301Z,9.50
2017-08-29T09:16:42.764Z,12.10
2017-08-29T09:19:10.233Z,10.70
2017-08-29T09:21:37.687Z,11.17
2017-08-29T09:24:05.176Z,10.40
2017-08-29T09:26:32.638Z,10.63
2017-08-29T09:29:00.128Z,12.50
2017-08-29T09:31:27.578Z,14.90
2017-08-29T09:33:55.017Z,10.50
2017-08-29T09:36:22.485Z,9.77
2017-08-29T09:38:49.936Z,10.20
2017-08-29T09:41:17.401Z,12.00
2017-08-29T09:43:44.847Z,9.73
2017-08-29T09:46:12.320Z,9.00
2017-08-29T09:48:39.768Z,9.20
2017-08-29T09:51:07.241Z,9.50
2017-08-29T09:53:34.693Z,12.43
2017-08-29T09:56:02.162Z,12.10
2017-08-29T09:58:29.607Z,9.23
2017-08-29T10:00:57.088Z,10.97
2017-08-29T10:03:24.548Z,10.80
2017-08-29T10:05:52.030Z,7.73
2017-08-29T10:08:19.480Z,8.37
2017-08-29T10:10:46.922Z,8.23
2017-08-29T10:13:14.395Z,8.10
2017-08-29T10:15:41.851Z,7.53
2017-08-29T10:18:09.314Z,7.90
2017-08-29T10:20:36.768Z,7.43
2017-08-29T10:23:04.243Z,7.10
2017-08-29T10:25:31.708Z,6.73
2017-08-29T10:27:59.179Z,7.17
2017-08-29T10:30:26.636Z,8.03
2017-08-29T10:32:54.118Z,7.43
2017-08-29T10:35:21.575Z,7.40
2017-08-29T10:37:49.059Z,7.87
2017-08-29T10:40:16.524Z,10.93
2017-08-29T10:42:44.005Z,6.87
2017-08-29T10:45:11.451Z,7.13
2017-08-29T10:47:38.930Z,6.27
2017-08-29T10:50:06.380Z,6.70
2017-08-29T10:52:33.850Z,6.80
2017-08-29T10:55:01.316Z,5.43
2017-08-29T10:57:28.797Z,5.77
2017-08-29T10:59:56.252Z,8.13
2017-08-29T11:02:23.722Z,6.27
2017-08-29T11:04:51.196Z,8.07
2017-08-29T11:07:18.648Z,5.70
2017-08-29T11:09:46.123Z,5.93
2017-08-29T11:12:13.592Z,13.53
2017-08-29T11:14:41.067Z,5.20
2017-08-29T11:17:08.521Z,6.33
2017-08-29T11:19:36.004Z,6.07
2017-08-29T11:22:03.453Z,5.67
2017-08-29T11:24:30.928Z,6.47
2017-08-29T11:26:58.388Z,7.83
2017-08-29T11:29:25.854Z,5.23
2017-08-29T11:31:53.300Z,5.83
2017-08-29T11:34:20.775Z,5.47
2017-08-29T11:36:48.234Z,6.40
2017-08-29T11:39:15.707Z,6.33
2017-08-29T11:41:43.156Z,6.10
2017-08-29T11:44:10.627Z,6.93
2017-08-29T11:46:38.076Z,6.43
2017-08-29T11:49:05.564Z,5.63
2017-08-29T11:51:33.017Z,5.43
2017-08-29T11:54:00.500Z,6.57
2017-08-29T11:56:27.949Z,5.80
2017-08-29T11:58:55.399Z,7.70
2017-08-29T12:01:22.872Z,6.63
2017-08-29T12:03:50.333Z,6.40
2017-08-29T12:06:17.806Z,7.10
2017-08-29T12:08:45.245Z,6.70
2017-08-29T12:11:12.716Z,7.77
2017-08-29T12:13:40.167Z,7.40
2017-08-29T12:16:07.647Z,8.50
2017-08-29T12:18:35.100Z,7.83
2017-08-29T12:21:02.571Z,8.23
2017-08-29T12:23:30.024Z,8.23
2017-08-29T12:25:57.499Z,7.90
2017-08-29T12:28:24.968Z,9.00
2017-08-29T12:30:52.444Z,9.93
2017-08-29T12:33:19.900Z,9.43
2017-08-29T12:35:47.369Z,11.03
2017-08-29T12:38:14.820Z,8.20
2017-08-29T12:40:42.293Z,9.07
2017-08-29T12:43:09.753Z,7.33
2017-08-29T12:45:37.232Z,8.43
2017-08-29T12:48:04.691Z,8.00
2017-08-29T12:50:32.200Z,8.30
2017-08-29T12:52:59.682Z,8.00
2017-08-29T12:55:27.133Z,14.77
2017-08-29T12:57:54.618Z,7.43
2017-08-29T13:00:22.137Z,13.80
2017-08-29T13:02:49.616Z,9.93
2017-08-29T13:05:17.067Z,8.23
2017-08-29T13:07:44.541Z,8.00
2017-08-29T13:10:11.995Z,8.23
2017-08-29T13:12:39.471Z,7.13
2017-08-29T13:15:06.977Z,8.27
2017-08-29T13:17:34.453Z,6.80
2017-08-29T13:20:01.905Z,8.43
2017-08-29T13:22:29.385Z,8.27
2017-08-29T13:24:56.844Z,8.30
2017-08-29T13:27:24.324Z,7.67
2017-08-29T13:29:51.780Z,8.60
2017-08-29T13:32:19.250Z,8.30
2017-08-29T13:34:46.700Z,8.63
2017-08-29T13:37:14.152Z,7.63
2017-08-29T13:39:41.624Z,7.90
2017-08-29T13:42:09.080Z,8.47
2017-08-29T13:44:36.557Z,8.90
2017-08-29T13:47:04.009Z,6.80
2017-08-29T13:49:31.485Z,7.43
2017-08-29T13:51:58.940Z,8.00
2017-08-29T13:54:26.414Z,8.80
2017-08-29T13:56:54.005Z,7.30
2017-08-29T13:59:21.480Z,7.77
2017-08-29T14:01:48.935Z,6.83
2017-08-29T14:04:16.411Z,7.00
2017-08-29T14:06:43.847Z,7.90
2017-08-29T14:09:11.306Z,7.03
2017-08-29T14:11:38.746Z,10.00
2017-08-29T14:14:06.206Z,7.40
2017-08-29T14:16:33.656Z,7.03
2017-08-29T14:19:01.146Z,7.27
2017-08-29T14:21:29.103Z,7.63
2017-08-29T14:23:56.555Z,7.60
2017-08-29T14:26:24.032Z,7.30
2017-08-29T14:28:51.519Z,7.73
2017-08-29T14:31:18.996Z,7.50
2017-08-29T14:33:46.455Z,8.07
2017-08-29T14:36:13.973Z,8.83
2017-08-29T14:38:41.433Z,8.20
2017-08-29T14:41:08.946Z,7.13
2017-08-29T14:43:36.424Z,7.17
2017-08-29T14:46:03.871Z,9.87
2017-08-29T14:48:43.147Z,13.20
2017-08-29T14:51:10.600Z,7.63
2017-08-29T14:53:38.072Z,8.87
2017-08-29T14:56:05.532Z,11.77
2017-08-29T14:58:33.004Z,7.63
2017-08-29T15:01:00.456Z,9.43
2017-08-29T15:03:27.922Z,12.20
2017-08-29T15:05:55.385Z,8.53
2017-08-29T15:08:22.850Z,8.20
2017-08-29T15:10:50.305Z,8.50
2017-08-29T15:13:17.786Z,8.27
2017-08-29T15:15:45.239Z,9.47
2017-08-29T15:18:13.754Z,7.97
2017-08-29T15:20:41.294Z,12.27
2017-08-29T15:23:08.751Z,13.17
2017-08-29T15:25:37.148Z,7.80
2017-08-29T15:28:04.668Z,9.53
2017-08-29T15:30:32.167Z,12.13
2017-08-29T15:32:59.625Z,8.43
2017-08-29T15:35:27.107Z,8.63
2017-08-29T15:37:54.566Z,7.90
2017-08-29T15:40:22.012Z,9.70
2017-08-29T15:42:49.487Z,9.03
2017-08-29T15:45:16.940Z,9.37
2017-08-29T15:47:44.411Z,9.90
2017-08-29T15:50:11.865Z,10.03
2017-08-29T15:52:39.338Z,10.87
2017-08-29T15:55:06.786Z,8.93
2017-08-29T15:57:34.266Z,10.27
2017-08-29T16:00:01.728Z,10.23
2017-08-29T16:02:29.215Z,11.37
2017-08-29T16:04:56.703Z,9.83
2017-08-29T16:07:24.195Z,11.10
2017-08-29T16:09:51.648Z,9.20
2017-08-29T16:12:19.132Z,10.13
2017-08-29T16:14:46.583Z,11.40
2017-08-29T16:17:14.050Z,10.80
2017-08-29T16:19:41.513Z,18.70
2017-08-29T16:22:09.003Z,12.03
2017-08-29T16:24:36.452Z,9.20
2017-08-29T16:27:03.928Z,9.90
2017-08-29T16:29:31.539Z,10.90
2017-08-29T16:31:59.010Z,19.00
2017-08-29T16:34:26.485Z,10.90
2017-08-29T16:36:53.979Z,16.47
2017-08-29T16:39:21.511Z,11.50
2017-08-29T16:41:48.968Z,12.43
2017-08-29T16:44:16.448Z,19.10
2017-08-29T16:46:43.917Z,20.83
2017-08-29T16:49:11.395Z,12.13
2017-08-29T16:51:38.851Z,12.40
2017-08-29T16:54:06.333Z,13.63
2017-08-29T16:56:33.788Z,10.70
2017-08-29T16:59:01.356Z,21.93
2017-08-29T17:01:28.817Z,13.30
2017-08-29T17:03:56.308Z,13.40
2017-08-29T17:06:23.768Z,10.43
2017-08-29T17:08:51.247Z,11.80
2017-08-29T17:11:18.712Z,16.90
2017-08-29T17:13:46.191Z,14.10
2017-08-29T17:16:13.638Z,10.57
2017-08-29T17:18:41.116Z,13.73
2017-08-29T17:21:08.581Z,11.53
2017-08-29T17:23:36.064Z,11.03
2017-08-29T17:26:03.528Z,12.17
2017-08-29T17:28:31.014Z,14.33
2017-08-29T17:30:58.472Z,12.33
2017-08-29T17:33:25.959Z,13.33
2017-08-29T17:35:53.415Z,19.27
2017-08-29T17:38:20.902Z,15.57
2017-08-29T17:40:48.346Z,12.60
2017-08-29T17:43:15.832Z,14.00
2017-08-29T17:45:43.300Z,12.70
2017-08-29T17:48:10.796Z,14.50
2017-08-29T17:50:38.252Z,10.60
2017-08-29T17:53:05.740Z,15.90
2017-08-29T17:55:33.203Z,18.23
2017-08-29T17:58:00.684Z,13.30
2017-08-29T18:00:28.144Z,14.13
2017-08-29T18:02:55.632Z,12.03
2017-08-29T18:05:23.199Z,11.37
2017-08-29T18:07:50.691Z,19.77
2017-08-29T18:10:18.164Z,16.20
2017-08-29T18:12:45.626Z,21.37
2017-08-29T18:15:13.112Z,13.27
2017-08-29T18:17:40.574Z,13.30
2017-08-29T18:20:08.056Z,16.03
2017-08-29T18:22:35.514Z,13.70
2017-08-29T18:25:02.996Z,12.17
2017-08-29T18:27:30.456Z,12.30
2017-08-29T18:29:57.926Z,14.00
2017-08-29T18:32:25.392Z,12.77
2017-08-29T18:34:52.862Z,12.73
2017-08-29T18:37:20.328Z,15.63
2017-08-29T18:39:47.822Z,17.43
2017-08-29T18:42:15.344Z,11.60
2017-08-29T18:44:42.831Z,11.70
2017-08-29T18:47:10.295Z,14.23
2017-08-29T18:49:37.774Z,17.87
2017-08-29T18:52:05.236Z,21.27
2017-08-29T18:54:32.789Z,15.40
2017-08-29T18:57:00.402Z,16.87
2017-08-29T18:59:27.888Z,13.40
2017-08-29T19:01:55.347Z,12.13
2017-08-29T19:04:22.828Z,27.73
2017-08-29T19:06:50.277Z,12.77
2017-08-29T19:09:17.764Z,19.77
2017-08-29T19:11:45.229Z,17.70
2017-08-29T19:14:12.716Z,17.57
2017-08-29T19:16:40.171Z,13.00
2017-08-29T19:19:07.663Z,14.13
2017-08-29T19:21:35.120Z,12.70
2017-08-29T19:24:02.599Z,14.27
2017-08-29T19:26:30.068Z,14.40
2017-08-29T19:28:57.564Z,17.50
2017-08-29T19:31:25.017Z,13.83
2017-08-29T19:33:52.481Z,14.87
2017-08-29T19:36:19.969Z,15.27
2017-08-29T19:38:47.445Z,15.90
2017-08-29T19:41:14.927Z,17.47
2017-08-29T19:43:42.381Z,22.07
2017-08-29T19:46:09.921Z,16.20
2017-08-29T19:48:37.407Z,13.50
2017-08-29T19:51:04.896Z,14.83
2017-08-29T19:53:32.352Z,14.80
2017-08-29T19:55:59.826Z,14.70
2017-08-29T19:58:27.607Z,23.53
2017-08-29T20:00:55.089Z,16.23
2017-08-29T20:03:22.547Z,15.33
2017-08-29T20:05:50.880Z,13.77
2017-08-29T20:08:18.347Z,15.53
2017-08-29T20:10:45.828Z,15.63
2017-08-29T20:13:13.296Z,23.97
2017-08-29T20:15:41.203Z,15.53
2017-08-29T20:18:09.056Z,15.87
2017-08-29T20:20:36.913Z,17.30
2017-08-29T20:23:04.499Z,15.43
2017-08-29T20:25:31.994Z,16.17
2017-08-29T20:27:59.460Z,17.30
2017-08-29T20:30:26.943Z,16.57
2017-08-29T20:32:54.414Z,16.77
2017-08-29T20:35:21.904Z,15.07
2017-08-29T20:37:49.378Z,14.97
2017-08-29T20:40:16.880Z,15.80
2017-08-29T20:42:44.347Z,14.80
2017-08-29T20:45:11.832Z,15.30
2017-08-29T20:47:39.282Z,16.03
2017-08-29T20:50:06.812Z,15.60
2017-08-29T20:52:34.300Z,17.93
2017-08-29T20:55:01.818Z,16.20
2017-08-29T20:57:29.302Z,18.10
2017-08-29T20:59:56.808Z,24.50
2017-08-29T21:02:24.301Z,19.73
2017-08-29T21:04:51.761Z,21.03
2017-08-29T21:07:19.276Z,18.20
2017-08-29T21:09:46.735Z,19.40
2017-08-29T21:12:14.224Z,17.80
2017-08-29T21:14:41.685Z,17.17
2017-08-29T21:17:09.180Z,17.93
2017-08-29T21:19:36.729Z,16.77
2017-08-29T21:22:04.224Z,19.67
2017-08-29T21:24:31.707Z,19.00
2017-08-29T21:26:59.153Z,18.27
2017-08-29T21:29:26.636Z,19.67
2017-08-29T21:31:54.089Z,22.07
2017-08-29T21:34:21.600Z,20.13
2017-08-29T21:36:49.059Z,20.87
2017-08-29T21:39:16.544Z,17.13
2017-08-29T21:41:44.008Z,17.27
2017-08-29T21:44:11.491Z,19.67
2017-08-29T21:46:38.947Z,19.50
2017-08-29T21:49:06.408Z,18.63
2017-08-29T21:51:34.003Z,19.40
2017-08-29T21:54:01.464Z,20.13
2017-08-29T21:56:28.962Z,21.10
2017-08-29T21:58:56.428Z,18.47
2017-08-29T22:01:23.912Z,19.07
2017-08-29T22:03:51.357Z,17.07
2017-08-29T22:06:18.845Z,17.43
2017-08-29T22:08:46.311Z,19.57
2017-08-29T22:11:13.812Z,19.67
2017-08-29T22:13:41.289Z,18.90
2017-08-29T22:16:08.767Z,20.40
2017-08-29T22:18:36.228Z,20.87
2017-08-29T22:21:03.720Z,19.33
2017-08-29T22:23:31.201Z,22.00
2017-08-29T22:25:58.678Z,21.60
2017-08-29T22:28:26.137Z,23.20
2017-08-29T22:30:53.605Z,24.53
2017-08-29T22:33:21.063Z,23.83
2017-08-29T22:35:48.555Z,23.13
2017-08-29T22:38:16.056Z,18.90
2017-08-29T22:40:43.552Z,22.07
2017-08-29T22:43:11.012Z,19.57
2017-08-29T22:45:38.503Z,21.53
2017-08-29T22:48:05.994Z,24.87
2017-08-29T22:50:33.528Z,22.13
2017-08-29T22:53:00.987Z,21.67
2017-08-29T22:55:28.523Z,18.33
2017-08-29T22:57:55.988Z,18.83
2017-08-29T23:00:23.451Z,21.40
2017-08-29T23:02:50.952Z,20.50
2017-08-29T23:05:18.405Z,20.53
2017-08-29T23:07:45.892Z,21.27
2017-08-29T23:10:13.351Z,23.70
2017-08-29T23:12:40.835Z,23.30
2017-08-29T23:15:08.299Z,19.23
2017-08-29T23:17:35.792Z,19.37
2017-08-29T23:20:03.252Z,22.33
2017-08-29T23:22:30.740Z,20.63
2017-08-29T23:24:58.199Z,20.77
2017-08-29T23:27:25.683Z,21.77
2017-08-29T23:29:53.148Z,22.20
2017-08-29T23:32:20.620Z,19.67
2017-08-29T23:34:48.075Z,21.03
2017-08-29T23:37:15.561Z,21.33
2017-08-29T23:39:43.015Z,19.27
2017-08-29T23:42:10.489Z,19.13
2017-08-29T23:44:37.945Z,20.03
2017-08-29T23:47:05.423Z,20.83
2017-08-29T23:49:32.887Z,22.00
2017-08-29T23:52:00.367Z,19.40
2017-08-29T23:54:27.828Z,21.47
2017-08-29T23:56:55.302Z,23.93
2017-08-29T23:59:22.768Z,22.30
